« 2011年秋の北海道~5日目 | トップページ | 2011年秋の北海道~7日目 »

2011年9月26日 (月)

2011年秋の北海道~6日目

RJCM 260000Z 19010KT 9999 FEW020 17/11 Q1024
RJCM 260300Z 20011KT 9999 FEW035 20/10 Q1021
RJCM 260600Z 20011KT 9999 FEW030 21/10 Q1019
RJCM 260900Z 20009KT 9999 FEW030 17/12 Q1020

Dscn8796s

Dscn8798s

Dscn8799s

Dscn8800s

Dscn8802s

Dscn8804s

|

« 2011年秋の北海道~5日目 | トップページ | 2011年秋の北海道~7日目 »

別海合宿」カテゴリの記事

コメント

コメントを書く



(ウェブ上には掲載しません)


コメントは記事投稿者が公開するまで表示されません。



« 2011年秋の北海道~5日目 | トップページ | 2011年秋の北海道~7日目 »